Christian Radich — LJLM — position and weather

sailwx.info

Track history (hours):
 
Tides and Currents Weather Stations Pressure Air Temp Water Temp Dewpoint Dewpoint Depression Visibility Wind Speed Wind Dir Waves Ship Positions

Christian Radich (Norway)

Last reported at 2017-Mar-28 14:29 UTC. Time now 2017-Mar-29 13:08 UTC.
Position N 53°10' E 005°25'.

Length 73 m; draft 5 m.

Type: Sailing vessel. MMSI: 258373000.

Date/timePositionNaut miles runAvg speedWind from/ knotsBaromVisibWave heightAir tempDewpointWater temp
2017-Mar-28 14:29N 53°10' E 005°25'0 0.1
2017-Mar-28 13:33N 53°10' E 005°25'0 0.0
2017-Mar-28 12:31N 53°10' E 005°25'0 0.0
2017-Mar-28 11:33N 53°10' E 005°25'0 0.0
2017-Mar-27 07:19N 53°10' E 005°25'0 0.1
2017-Mar-27 06:31N 53°10' E 005°25'0 0.0
2017-Mar-27 05:32N 53°10' E 005°25'0 0.0
2017-Mar-27 04:32N 53°10' E 005°25'0 0.1
2017-Mar-27 03:33N 53°10' E 005°25'0 0.1
2017-Mar-27 02:31N 53°10' E 005°25'0 0.0
2017-Mar-27 01:31N 53°10' E 005°25'0 0.0
2017-Mar-27 00:32N 53°10' E 005°25'0 0.0
2017-Mar-26 23:33N 53°10' E 005°25'0 0.0
2017-Mar-26 22:33N 53°10' E 005°25'0 0.0
2017-Mar-26 21:31N 53°10' E 005°25'0 0.0
2017-Mar-26 20:32N 53°10' E 005°25'0 0.0
2017-Mar-26 19:32N 53°10' E 005°25'0 0.1
2017-Mar-26 18:33N 53°10' E 005°25'0 0.2
2017-Mar-26 17:33N 53°10' E 005°25'0 0.1
2017-Mar-26 16:31N 53°10' E 005°25'0 0.0
2017-Mar-26 15:32N 53°10' E 005°25'0 0.0
2017-Mar-26 14:32N 53°10' E 005°25'0 0.0
2017-Mar-26 13:33N 53°10' E 005°25'0 0.0
2017-Mar-26 12:31N 53°10' E 005°25'0 0.0
2017-Mar-26 11:31N 53°10' E 005°25'0 0.0
2017-Mar-26 10:32N 53°10' E 005°25'0 0.0
2017-Mar-26 09:33N 53°10' E 005°25'0 0.0
2017-Mar-26 08:33N 53°10' E 005°25'3 3.4
2017-Mar-26 07:34N 53°11' E 005°19'7 7.1
2017-Mar-26 06:34N 53°16' E 005°10'6 5.9
2017-Mar-26 05:34N 53°19' E 005°01'5 4.9
2017-Mar-26 04:33N 53°20' E 004°53'4 4.0
2017-Mar-26 03:34N 53°23' E 004°56'4 4.1
2017-Mar-26 02:33N 53°26' E 005°01'4 4.3
2017-Mar-26 01:33N 53°28' E 005°08'4 4.0
2017-Mar-26 00:33N 53°29' E 005°14'6 5.6
2017-Mar-25 23:33N 53°35' E 005°13'5 5.2
2017-Mar-25 22:33N 53°40' E 005°10'2 2.1
2017-Mar-25 21:33N 53°42' E 005°09'3 2.5
2017-Mar-25 20:33N 53°44' E 005°06'3 3.4
2017-Mar-25 19:33N 53°47' E 005°03'4 4.0
2017-Mar-25 18:33N 53°51' E 005°01'7 6.6
2017-Mar-25 17:34N 53°57' E 004°59'8 7.7
2017-Mar-25 16:30N 54°05' E 004°58'7 7.6
2017-Mar-25 15:33N 54°13' E 004°58'8 7.7
2017-Mar-25 14:33N 54°19' E 005°07'10 8.1
2017-Mar-25 13:22N 54°25' E 005°20'8 8.1
2017-Mar-25 12:20N 54°29' E 005°32'6 1.8
2017-Mar-25 09:17N 54°30' E 005°41'4 5.7
2017-Mar-25 08:32N 54°33' E 005°47'5 5.3
2017-Mar-25 07:33N 54°36' E 005°54'2 2.3
2017-Mar-25 06:34N 54°38' E 005°53'3 2.5
2017-Mar-25 05:33N 54°40' E 005°53'2 2.4
2017-Mar-25 04:34N 54°43' E 005°52'2 2.5
2017-Mar-25 03:33N 54°45' E 005°52'2 2.4
2017-Mar-25 02:34N 54°48' E 005°51'3 3.0
2017-Mar-25 01:33N 54°51' E 005°52'3 3.1
2017-Mar-25 00:33N 54°54' E 005°52'3 2.6
2017-Mar-24 23:33N 54°56' E 005°52'3 2.8
2017-Mar-24 22:33N 54°59' E 005°53'3 2.9
2017-Mar-24 21:33N 55°02' E 005°53'3 2.7
2017-Mar-24 20:33N 55°05' E 005°53'9 1.8
2017-Mar-24 15:32N 55°14' E 005°48'1 1.2
2017-Mar-24 14:32N 55°15' E 005°48'1 1.2
2017-Mar-24 13:34N 55°16' E 005°49'1 1.3
2017-Mar-24 12:32N 55°17' E 005°51'2 1.7
2017-Mar-24 11:32N 55°18' E 005°53'3 1.7
2017-Mar-24 09:32N 55°20' E 005°57'17 2.0
2017-Mar-24 01:09N 55°26' E 006°24'2 2.7
2017-Mar-24 00:31N 55°25' E 006°27'3 3.3
2017-Mar-23 23:30N 55°25' E 006°33'4 3.5
2017-Mar-23 22:28N 55°25' E 006°40'4 4.1
2017-Mar-23 21:33N 55°24' E 006°46'5 4.7
2017-Mar-23 20:33N 55°24' E 006°54'5 5.2
2017-Mar-23 19:34N 55°23' E 007°04'5 5.2
2017-Mar-23 18:34N 55°23' E 007°13'5 4.9
2017-Mar-23 17:33N 55°23' E 007°21'5 4.7
2017-Mar-23 16:33N 55°23' E 007°30'3 3.5
2017-Mar-23 15:33N 55°24' E 007°36'4 4.0
2017-Mar-23 14:34N 55°25' E 007°43'4 4.0
2017-Mar-23 13:34N 55°26' E 007°50'3 3.2
2017-Mar-23 12:33N 55°26' E 007°55'4 3.8
2017-Mar-23 11:33N 55°26' E 008°02'5 5.3
2017-Mar-23 10:33N 55°25' E 008°11'8 7.9
2017-Mar-23 09:34N 55°29' E 008°24'2 2.1
2017-Mar-23 08:33N 55°28' E 008°27'0 0.0
2017-Mar-23 07:33N 55°28' E 008°27'0 0.0
2017-Mar-23 06:31N 55°28' E 008°27'0 0.0
2017-Mar-23 05:29N 55°28' E 008°27'0 0.0
2017-Mar-23 04:32N 55°28' E 008°27'0 0.0
2017-Mar-23 03:33N 55°28' E 008°27'0 0.0
2017-Mar-23 02:34N 55°28' E 008°27'0 0.0
2017-Mar-23 01:28N 55°28' E 008°27'0 0.0
2017-Mar-23 00:29N 55°28' E 008°27'0 0.0
2017-Mar-22 23:30N 55°28' E 008°27'0 0.0
2017-Mar-22 22:27N 55°28' E 008°27'0 0.0
2017-Mar-22 21:31N 55°28' E 008°27'0 0.0
2017-Mar-22 20:32N 55°28' E 008°27'0 0.0
2017-Mar-22 19:32N 55°28' E 008°27'0 0.0
2017-Mar-22 18:30N 55°28' E 008°27'0 0.0
2017-Mar-22 17:31N 55°28' E 008°27'0 0.0
2017-Mar-22 16:31N 55°28' E 008°27'0 0.0
2017-Mar-22 15:32N 55°28' E 008°27'0 0.0
2017-Mar-22 14:33N 55°28' E 008°27'0 0.0
2017-Mar-22 13:33N 55°28' E 008°27'0 0.0
2017-Mar-22 12:28N 55°28' E 008°27'0 0.0
2017-Mar-22 11:32N 55°28' E 008°27'0 0.0
2017-Mar-22 10:29N 55°28' E 008°27'0 0.0
2017-Mar-22 09:33N 55°28' E 008°27'1 0.6
2017-Mar-22 08:33N 55°27' E 008°26'5 5.4
2017-Mar-22 07:33N 55°27' E 008°16'5 5.3
2017-Mar-22 06:33N 55°22' E 008°10'3 3.1
2017-Mar-22 05:33N 55°21' E 008°05'3 3.1
2017-Mar-22 04:33N 55°21' E 007°60'3 3.4
2017-Mar-22 03:33N 55°23' E 007°54'4 3.7
2017-Mar-22 02:33N 55°25' E 007°49'4 4.1
2017-Mar-22 01:33N 55°26' E 007°42'4 3.9
2017-Mar-22 00:33N 55°27' E 007°35'4 3.8
2017-Mar-21 23:33N 55°28' E 007°29'4 3.6
2017-Mar-21 22:33N 55°30' E 007°23'4 4.2
2017-Mar-21 21:33N 55°32' E 007°17'4 4.0
2017-Mar-21 20:33N 55°35' E 007°13'3 3.4
2017-Mar-21 19:33N 55°38' E 007°08'5 4.6
2017-Mar-21 18:34N 55°40' E 007°01'159 7.9
2017-Mar-20 22:27N 53°18' E 004°56'3 3.6
2017-Mar-20 21:33N 53°19' E 005°01'4 4.4
2017-Mar-20 20:33N 53°20' E 005°08'6 6.1
2017-Mar-20 19:33N 53°14' E 005°13'7 7.3
2017-Mar-20 18:33N 53°11' E 005°23'1 0.8
2017-Mar-20 17:33N 53°10' E 005°25'0 0.0
2017-Mar-20 16:33N 53°10' E 005°25'0 0.0
2017-Mar-20 15:32N 53°10' E 005°25'0 0.0
2017-Mar-20 14:33N 53°10' E 005°25'0 0.0
2017-Mar-20 13:31N 53°10' E 005°25'0 0.0
2017-Mar-20 12:31N 53°10' E 005°25'0 0.0
2017-Mar-20 11:32N 53°10' E 005°25'0 0.0
2017-Mar-20 10:33N 53°10' E 005°25'0 0.0
2017-Mar-20 09:33N 53°10' E 005°25'0 0.0
2017-Mar-20 08:31N 53°10' E 005°25'0 0.0
2017-Mar-20 07:32N 53°10' E 005°25'0 0.0
2017-Mar-20 06:32N 53°10' E 005°25'0 0.0
2017-Mar-20 05:33N 53°10' E 005°25'0 0.0
2017-Mar-20 04:31N 53°10' E 005°25'0 0.0
2017-Mar-20 03:31N 53°10' E 005°25'0 0.0
2017-Mar-20 02:32N 53°10' E 005°25'0 0.0
2017-Mar-20 01:33N 53°10' E 005°25'0 0.0
2017-Mar-20 00:33N 53°10' E 005°25'0 0.0
2017-Mar-19 23:31N 53°10' E 005°25'0 0.0
2017-Mar-19 22:32N 53°10' E 005°25'0 0.0
2017-Mar-19 21:29N 53°10' E 005°25'0 0.0
2017-Mar-19 20:33N 53°10' E 005°25'0 0.0
2017-Mar-19 19:33N 53°10' E 005°25'0 0.0
2017-Mar-19 18:31N 53°10' E 005°25'0 0.0
2017-Mar-19 17:32N 53°10' E 005°25'0 0.0
2017-Mar-19 16:32N 53°10' E 005°25'0 0.0
2017-Mar-19 15:33N 53°10' E 005°25'0 0.0
2017-Mar-19 14:31N 53°10' E 005°25'0 0.0
2017-Mar-19 13:31N 53°10' E 005°25'0 0.0
2017-Mar-19 12:32N 53°10' E 005°25'0 0.0
2017-Mar-19 11:33N 53°10' E 005°25'0 0.0
2017-Mar-19 10:33N 53°10' E 005°25'0 0.0
2017-Mar-19 09:31N 53°10' E 005°25'0 0.0
2017-Mar-19 08:32N 53°10' E 005°25'0 0.0
2017-Mar-19 07:32N 53°10' E 005°25'0 0.0
2017-Mar-19 06:33N 53°10' E 005°25'0 0.0
2017-Mar-19 05:31N 53°10' E 005°25'0 0.0
2017-Mar-19 04:31N 53°10' E 005°25'0 0.0
2017-Mar-19 03:32N 53°10' E 005°25'0 0.1
2017-Mar-19 02:33N 53°10' E 005°25'0 0.1
2017-Mar-19 01:33N 53°10' E 005°25'0 0.0
2017-Mar-19 00:31N 53°10' E 005°25'0 0.0
2017-Mar-18 23:31N 53°10' E 005°25'0 0.0
2017-Mar-18 22:32N 53°10' E 005°25'0 0.0
2017-Mar-18 21:33N 53°10' E 005°25'0 0.0
2017-Mar-18 20:33N 53°10' E 005°25'0 0.0
2017-Mar-18 19:31N 53°10' E 005°25'0 0.0
2017-Mar-18 18:32N 53°10' E 005°25'0 0.0
2017-Mar-18 17:32N 53°10' E 005°25'0 0.0
2017-Mar-18 16:33N 53°10' E 005°25'0 0.0
2017-Mar-18 15:34N 53°10' E 005°25'0 0.0
2017-Mar-18 14:31N 53°10' E 005°25'  
Track history (hours):
 
Tides and Currents Weather Stations Pressure Air Temp Water Temp Dewpoint Dewpoint Depression Visibility Wind Speed Wind Dir Waves Ship Positions

Christian Radich (Norway)

Last reported at 2017-Mar-28 14:29 UTC. Time now 2017-Mar-29 13:08 UTC.
Position N 53°10' E 005°25'.

Length 73 m; draft 5 m.

Type: Sailing vessel. MMSI: 258373000.

Date/timePositionNaut miles runAvg speedWind from/ knotsBaromVisibWave heightAir tempDewpointWater temp
2017-Mar-28 14:29N 53°10' E 005°25'0 0.1
2017-Mar-28 13:33N 53°10' E 005°25'0 0.0
2017-Mar-28 12:31N 53°10' E 005°25'0 0.0
2017-Mar-28 11:33N 53°10' E 005°25'0 0.0
2017-Mar-27 07:19N 53°10' E 005°25'0 0.1
2017-Mar-27 06:31N 53°10' E 005°25'0 0.0
2017-Mar-27 05:32N 53°10' E 005°25'0 0.0
2017-Mar-27 04:32N 53°10' E 005°25'0 0.1
2017-Mar-27 03:33N 53°10' E 005°25'0 0.1
2017-Mar-27 02:31N 53°10' E 005°25'0 0.0
2017-Mar-27 01:31N 53°10' E 005°25'0 0.0
2017-Mar-27 00:32N 53°10' E 005°25'0 0.0
2017-Mar-26 23:33N 53°10' E 005°25'0 0.0
2017-Mar-26 22:33N 53°10' E 005°25'0 0.0
2017-Mar-26 21:31N 53°10' E 005°25'0 0.0
2017-Mar-26 20:32N 53°10' E 005°25'0 0.0
2017-Mar-26 19:32N 53°10' E 005°25'0 0.1
2017-Mar-26 18:33N 53°10' E 005°25'0 0.2
2017-Mar-26 17:33N 53°10' E 005°25'0 0.1
2017-Mar-26 16:31N 53°10' E 005°25'0 0.0
2017-Mar-26 15:32N 53°10' E 005°25'0 0.0
2017-Mar-26 14:32N 53°10' E 005°25'0 0.0
2017-Mar-26 13:33N 53°10' E 005°25'0 0.0
2017-Mar-26 12:31N 53°10' E 005°25'0 0.0
2017-Mar-26 11:31N 53°10' E 005°25'0 0.0
2017-Mar-26 10:32N 53°10' E 005°25'0 0.0
2017-Mar-26 09:33N 53°10' E 005°25'0 0.0
2017-Mar-26 08:33N 53°10' E 005°25'3 3.4
2017-Mar-26 07:34N 53°11' E 005°19'7 7.1
2017-Mar-26 06:34N 53°16' E 005°10'6 5.9
2017-Mar-26 05:34N 53°19' E 005°01'5 4.9
2017-Mar-26 04:33N 53°20' E 004°53'4 4.0
2017-Mar-26 03:34N 53°23' E 004°56'4 4.1
2017-Mar-26 02:33N 53°26' E 005°01'4 4.3
2017-Mar-26 01:33N 53°28' E 005°08'4 4.0
2017-Mar-26 00:33N 53°29' E 005°14'6 5.6
2017-Mar-25 23:33N 53°35' E 005°13'5 5.2
2017-Mar-25 22:33N 53°40' E 005°10'2 2.1
2017-Mar-25 21:33N 53°42' E 005°09'3 2.5
2017-Mar-25 20:33N 53°44' E 005°06'3 3.4
2017-Mar-25 19:33N 53°47' E 005°03'4 4.0
2017-Mar-25 18:33N 53°51' E 005°01'7 6.6
2017-Mar-25 17:34N 53°57' E 004°59'8 7.7
2017-Mar-25 16:30N 54°05' E 004°58'7 7.6
2017-Mar-25 15:33N 54°13' E 004°58'8 7.7
2017-Mar-25 14:33N 54°19' E 005°07'10 8.1
2017-Mar-25 13:22N 54°25' E 005°20'8 8.1
2017-Mar-25 12:20N 54°29' E 005°32'6 1.8
2017-Mar-25 09:17N 54°30' E 005°41'4 5.7
2017-Mar-25 08:32N 54°33' E 005°47'5 5.3
2017-Mar-25 07:33N 54°36' E 005°54'2 2.3
2017-Mar-25 06:34N 54°38' E 005°53'3 2.5
2017-Mar-25 05:33N 54°40' E 005°53'2 2.4
2017-Mar-25 04:34N 54°43' E 005°52'2 2.5
2017-Mar-25 03:33N 54°45' E 005°52'2 2.4
2017-Mar-25 02:34N 54°48' E 005°51'3 3.0
2017-Mar-25 01:33N 54°51' E 005°52'3 3.1
2017-Mar-25 00:33N 54°54' E 005°52'3 2.6
2017-Mar-24 23:33N 54°56' E 005°52'3 2.8
2017-Mar-24 22:33N 54°59' E 005°53'3 2.9
2017-Mar-24 21:33N 55°02' E 005°53'3 2.7
2017-Mar-24 20:33N 55°05' E 005°53'9 1.8
2017-Mar-24 15:32N 55°14' E 005°48'1 1.2
2017-Mar-24 14:32N 55°15' E 005°48'1 1.2
2017-Mar-24 13:34N 55°16' E 005°49'1 1.3
2017-Mar-24 12:32N 55°17' E 005°51'2 1.7
2017-Mar-24 11:32N 55°18' E 005°53'3 1.7
2017-Mar-24 09:32N 55°20' E 005°57'17 2.0
2017-Mar-24 01:09N 55°26' E 006°24'2 2.7
2017-Mar-24 00:31N 55°25' E 006°27'3 3.3
2017-Mar-23 23:30N 55°25' E 006°33'4 3.5
2017-Mar-23 22:28N 55°25' E 006°40'4 4.1
2017-Mar-23 21:33N 55°24' E 006°46'5 4.7
2017-Mar-23 20:33N 55°24' E 006°54'5 5.2
2017-Mar-23 19:34N 55°23' E 007°04'5 5.2
2017-Mar-23 18:34N 55°23' E 007°13'5 4.9
2017-Mar-23 17:33N 55°23' E 007°21'5 4.7
2017-Mar-23 16:33N 55°23' E 007°30'3 3.5
2017-Mar-23 15:33N 55°24' E 007°36'4 4.0
2017-Mar-23 14:34N 55°25' E 007°43'4 4.0
2017-Mar-23 13:34N 55°26' E 007°50'3 3.2
2017-Mar-23 12:33N 55°26' E 007°55'4 3.8
2017-Mar-23 11:33N 55°26' E 008°02'5 5.3
2017-Mar-23 10:33N 55°25' E 008°11'8 7.9
2017-Mar-23 09:34N 55°29' E 008°24'2 2.1
2017-Mar-23 08:33N 55°28' E 008°27'0 0.0
2017-Mar-23 07:33N 55°28' E 008°27'0 0.0
2017-Mar-23 06:31N 55°28' E 008°27'0 0.0
2017-Mar-23 05:29N 55°28' E 008°27'0 0.0
2017-Mar-23 04:32N 55°28' E 008°27'0 0.0
2017-Mar-23 03:33N 55°28' E 008°27'0 0.0
2017-Mar-23 02:34N 55°28' E 008°27'0 0.0
2017-Mar-23 01:28N 55°28' E 008°27'0 0.0
2017-Mar-23 00:29N 55°28' E 008°27'0 0.0
2017-Mar-22 23:30N 55°28' E 008°27'0 0.0
2017-Mar-22 22:27N 55°28' E 008°27'0 0.0
2017-Mar-22 21:31N 55°28' E 008°27'0 0.0
2017-Mar-22 20:32N 55°28' E 008°27'0 0.0
2017-Mar-22 19:32N 55°28' E 008°27'0 0.0
2017-Mar-22 18:30N 55°28' E 008°27'0 0.0
2017-Mar-22 17:31N 55°28' E 008°27'0 0.0
2017-Mar-22 16:31N 55°28' E 008°27'0 0.0
2017-Mar-22 15:32N 55°28' E 008°27'0 0.0
2017-Mar-22 14:33N 55°28' E 008°27'0 0.0
2017-Mar-22 13:33N 55°28' E 008°27'0 0.0
2017-Mar-22 12:28N 55°28' E 008°27'0 0.0
2017-Mar-22 11:32N 55°28' E 008°27'0 0.0
2017-Mar-22 10:29N 55°28' E 008°27'0 0.0
2017-Mar-22 09:33N 55°28' E 008°27'1 0.6
2017-Mar-22 08:33N 55°27' E 008°26'5 5.4
2017-Mar-22 07:33N 55°27' E 008°16'5 5.3
2017-Mar-22 06:33N 55°22' E 008°10'3 3.1
2017-Mar-22 05:33N 55°21' E 008°05'3 3.1
2017-Mar-22 04:33N 55°21' E 007°60'3 3.4
2017-Mar-22 03:33N 55°23' E 007°54'4 3.7
2017-Mar-22 02:33N 55°25' E 007°49'4 4.1
2017-Mar-22 01:33N 55°26' E 007°42'4 3.9
2017-Mar-22 00:33N 55°27' E 007°35'4 3.8
2017-Mar-21 23:33N 55°28' E 007°29'4 3.6
2017-Mar-21 22:33N 55°30' E 007°23'4 4.2
2017-Mar-21 21:33N 55°32' E 007°17'4 4.0
2017-Mar-21 20:33N 55°35' E 007°13'3 3.4
2017-Mar-21 19:33N 55°38' E 007°08'5 4.6
2017-Mar-21 18:34N 55°40' E 007°01'159 7.9
2017-Mar-20 22:27N 53°18' E 004°56'3 3.6
2017-Mar-20 21:33N 53°19' E 005°01'4 4.4
2017-Mar-20 20:33N 53°20' E 005°08'6 6.1
2017-Mar-20 19:33N 53°14' E 005°13'7 7.3
2017-Mar-20 18:33N 53°11' E 005°23'1 0.8
2017-Mar-20 17:33N 53°10' E 005°25'0 0.0
2017-Mar-20 16:33N 53°10' E 005°25'0 0.0
2017-Mar-20 15:32N 53°10' E 005°25'0 0.0
2017-Mar-20 14:33N 53°10' E 005°25'0 0.0
2017-Mar-20 13:31N 53°10' E 005°25'0 0.0
2017-Mar-20 12:31N 53°10' E 005°25'0 0.0
2017-Mar-20 11:32N 53°10' E 005°25'0 0.0
2017-Mar-20 10:33N 53°10' E 005°25'0 0.0
2017-Mar-20 09:33N 53°10' E 005°25'0 0.0
2017-Mar-20 08:31N 53°10' E 005°25'0 0.0
2017-Mar-20 07:32N 53°10' E 005°25'0 0.0
2017-Mar-20 06:32N 53°10' E 005°25'0 0.0
2017-Mar-20 05:33N 53°10' E 005°25'0 0.0
2017-Mar-20 04:31N 53°10' E 005°25'0 0.0
2017-Mar-20 03:31N 53°10' E 005°25'0 0.0
2017-Mar-20 02:32N 53°10' E 005°25'0 0.0
2017-Mar-20 01:33N 53°10' E 005°25'0 0.0
2017-Mar-20 00:33N 53°10' E 005°25'0 0.0
2017-Mar-19 23:31N 53°10' E 005°25'0 0.0
2017-Mar-19 22:32N 53°10' E 005°25'0 0.0
2017-Mar-19 21:29N 53°10' E 005°25'0 0.0
2017-Mar-19 20:33N 53°10' E 005°25'0 0.0
2017-Mar-19 19:33N 53°10' E 005°25'0 0.0
2017-Mar-19 18:31N 53°10' E 005°25'0 0.0
2017-Mar-19 17:32N 53°10' E 005°25'0 0.0
2017-Mar-19 16:32N 53°10' E 005°25'0 0.0
2017-Mar-19 15:33N 53°10' E 005°25'0 0.0
2017-Mar-19 14:31N 53°10' E 005°25'0 0.0
2017-Mar-19 13:31N 53°10' E 005°25'0 0.0
2017-Mar-19 12:32N 53°10' E 005°25'0 0.0
2017-Mar-19 11:33N 53°10' E 005°25'0 0.0
2017-Mar-19 10:33N 53°10' E 005°25'0 0.0
2017-Mar-19 09:31N 53°10' E 005°25'0 0.0
2017-Mar-19 08:32N 53°10' E 005°25'0 0.0
2017-Mar-19 07:32N 53°10' E 005°25'0 0.0
2017-Mar-19 06:33N 53°10' E 005°25'0 0.0
2017-Mar-19 05:31N 53°10' E 005°25'0 0.0
2017-Mar-19 04:31N 53°10' E 005°25'0 0.0
2017-Mar-19 03:32N 53°10' E 005°25'0 0.1
2017-Mar-19 02:33N 53°10' E 005°25'0 0.1
2017-Mar-19 01:33N 53°10' E 005°25'0 0.0
2017-Mar-19 00:31N 53°10' E 005°25'0 0.0
2017-Mar-18 23:31N 53°10' E 005°25'0 0.0
2017-Mar-18 22:32N 53°10' E 005°25'0 0.0
2017-Mar-18 21:33N 53°10' E 005°25'0 0.0
2017-Mar-18 20:33N 53°10' E 005°25'0 0.0
2017-Mar-18 19:31N 53°10' E 005°25'0 0.0
2017-Mar-18 18:32N 53°10' E 005°25'0 0.0
2017-Mar-18 17:32N 53°10' E 005°25'0 0.0
2017-Mar-18 16:33N 53°10' E 005°25'0 0.0
2017-Mar-18 15:34N 53°10' E 005°25'0 0.0
2017-Mar-18 14:31N 53°10' E 005°25'  

Dump ship's entire track history